Tiempo atmosférico en la estación meteorológica de Almonte, Huelva (5 m.)



Fecha
DESCASC
Temp. máxima en grados centígrados (hora)
DESCASC
Temp. mínima en grados centígrados (hora)
DESCASC
Temp. media en grados centígrados
DESCASC
Racha de viento máxima en m/sg (hora)
DESCASC
Velocidad máxima media en intervalos de 10 minutos(hora)
DESCASC
Precipitaciones diarias en mm
DESCASC
Precipitaciones de 00:00 a 06:00 en mm
DESCASC
Precipitaciones de 06:00 a 12:00 en mm
DESCASC
Precipitaciones de 12:00 a 18:00 en mm
DESCASC
Precipitaciones de 18:00 a 24:00 en mm
DESCASC
25-01-2020 15.6 (15:10) 8.6 (00:00) 12.1 5.28 (01:20) 2.78 (04:40) -- -- -- -- --
24-01-2020 13.3 (14:00) 6.2 (00:00) 9.8 8.61 (16:00) 4.44 (16:00) -- -- -- -- --
23-01-2020 12.5 (15:20) 8.6 (00:00) 10.6 7.78 (06:20) 4.72 (15:30) -- -- -- -- --
22-01-2020 11 (14:40) 7.4 (00:00) 9.2 6.39 (16:10) 3.61 (13:40) -- -- -- -- --
21-01-2020 14.2 (13:20) 3.9 (00:00) 9 11.11 (13:10) 6.39 (13:10) -- -- -- -- --
20-01-2020 12.7 (15:20) 4.2 (00:00) 8.4 18.33 (13:20) 12.22 (13:20) -- -- -- -- --
19-01-2020 17 (15:10) 8.1 (00:00) 12.6 12.22 (22:00) 8.33 (22:00) -- -- -- -- --
18-01-2020 16 (12:50) 4.4 (00:00) 10.2 10.28 (23:40) 6.39 (16:40) -- -- -- -- --
11-01-2020 17.1 (15:50) 2.5 (00:00) 9.8 10 (11:20) 6.67 (11:20) 0 0 0 0 0
17-01-2020 18.7 (15:00) 5.6 (00:00) 12.2 5 (15:40) 3.06 (13:10) 0 0 0 0 0
16-01-2020 20.2 (14:00) 3.8 (00:00) 12 7.78 (15:30) 5.56 (16:50) 0 0 0 0 0
15-01-2020 19.3 (14:30) 3.4 (00:00) 11.3 9.44 (13:50) 6.94 (13:50) 0 0 0 0 0
14-01-2020 18 (15:40) 1.7 (00:00) 9.9 4.72 (15:40) 3.06 (16:00) 0 0 0 0 0
13-01-2020 17.4 (16:50) 0.1 (00:00) 8.7 5.28 (10:30) 3.61 (10:40) 0 0 0 0 0
12-01-2020 17.4 (16:10) 1.5 (00:00) 9.4 6.39 (14:00) 3.89 (14:20) 0 0 0 0 0
27-12-2019 22 (15:50) 8.7 (00:00) 15.3 5.28 (08:40) 3.89 (08:40) 0 0 0 0 0
10-01-2020 16.3 (16:40) 4.9 (00:00) 10.6 7.22 (15:10) 4.44 (14:50) 0 0 0 0 0
09-01-2020 17.4 (16:30) 0.9 (00:00) 9.1 5.28 (14:10) 3.61 (14:20) 0 0 0 0 0
08-01-2020 20 (16:20) -0.1 (00:00) 9.9 6.11 (11:50) 3.89 (12:50) 0 0 0 0 0
07-01-2020 17 (16:20) 1.6 (00:00) 9.3 6.94 (13:20) 4.72 (13:10) 0 0 0 0 0
06-01-2020 17.5 (16:00) 2.2 (00:00) 9.9 5 (11:30) 3.33 (11:30) 0 0 0 0 0
05-01-2020 17.2 (16:20) 5 (00:00) 11.1 7.22 (12:40) 4.72 (11:50) 0 0 0 0 0
04-01-2020 14.6 (15:50) 0.9 (00:00) 7.8 8.61 (13:50) 5.83 (13:10) 0 0 0 0 0
03-01-2020 15.6 (16:10) 7.1 (00:00) 11.4 5.28 (14:50) 2.78 (16:20) 0 0 0 0 0
02-01-2020 17.7 (15:50) 3.2 (00:00) 10.5 3.89 (05:40) 2.78 (04:30) 0.2 0 0.2 0 0
01-01-2020 18.9 (16:10) 4.2 (00:00) 11.5 4.17 (12:30) 2.78 (11:00) 0 0 0 0 0
31-12-2019 17.4 (16:20) 4.3 (00:00) 10.8 6.11 (13:00) 3.61 (13:00) 0 0 0 0 0
30-12-2019 -- (--) -- (--) -- -- (--) -- (--) -- 0 0 0 --
29-12-2019 19.3 (15:10) 5.8 (00:00) 12.5 5.83 (14:20) 3.33 (11:10) 0 0 0 0 0
28-12-2019 20.5 (15:50) 5.5 (00:00) 13 4.72 (14:10) 2.5 (12:10) 0 0 0 0 0

Gráficas

Temp. máximas Temp. mínimas Temp. medias Precipitaciones Rachas de viento máximas Velocidades máximas media en intervalos de 10 minutos

Datos horarios

Fecha y hora oficial Temperatura (ºC) Velocidad del viento (km/h) Dirección del viento Racha (km/h) Dirección de racha Precipitación (mm) Presión (hPa) Tendencia (hPa) Humedad (%)
2020-01-25 23:00:00 9.5 4 Noroeste 9 Oeste -- -- -- 95
2020-01-25 22:00:00 10.3 4 Oeste 11 Oeste -- -- -- 93
2020-01-25 21:00:00 11.5 8 Oeste 13 Oeste -- -- -- 92
2020-01-25 20:00:00 12.2 6 Oeste 11 Oeste -- -- -- 91
2020-01-25 19:00:00 13.1 6 Oeste 11 Oeste -- -- -- 86
2020-01-25 18:00:00 15.3 4 Oeste 9 Noroeste -- -- -- 76
2020-01-25 17:00:00 14.6 4 Norte 12 Noroeste -- -- -- 82
2020-01-25 16:00:00 14.3 6 Norte 12 Norte -- -- -- 82
2020-01-25 15:00:00 15.5 6 Este 12 Sudeste -- -- -- 77
2020-01-25 14:00:00 14.9 5 Este 14 Sudeste -- -- -- 86
2020-01-25 13:00:00 13.1 6 Sudeste 18 Sudeste -- -- -- 99
2020-01-25 12:00:00 12.2 8 Sudeste 16 Sudeste -- -- -- 99
2020-01-25 11:00:00 11 6 Sudeste 12 Sur -- -- -- 99
2020-01-25 10:00:00 10.4 4 Sudeste 9 Sudeste -- -- -- 99
2020-01-25 09:00:00 10.1 3 Este 8 Sudeste -- -- -- 99
2020-01-25 08:00:00 10.4 0 Calma 15 Sudeste -- -- -- 98
2020-01-25 07:00:00 10.6 7 Este 15 Sudeste -- -- -- 98
2020-01-25 06:00:00 10 4 Este 9 Nordeste -- -- -- 98
2020-01-25 05:00:00 10.6 4 Sudeste 19 Sur -- -- -- 98
2020-01-25 04:00:00 9.7 6 Sudeste 15 Este -- -- -- 98
2020-01-25 03:00:00 9.9 6 Nordeste 17 Noroeste -- -- -- 98
2020-01-25 02:00:00 10 4 Este 19 Noroeste -- -- -- 98
2020-01-25 01:00:00 9.2 5 Sudeste 11 Este -- -- -- 98
2020-01-25 00:00:00 8.9 2 Sudeste 8 Sur -- -- -- 98
2020-01-24 23:00:00 8.6 0 Calma 6 Sudeste -- -- -- 97
2020-01-24 22:00:00 9.5 3 Sudeste 10 Sur -- -- -- 97
2020-01-24 21:00:00 11 7 Sur 14 Sudoeste -- -- -- 97
2020-01-24 20:00:00 11.5 6 Sur 9 Sur -- -- -- 97
2020-01-24 19:00:00 11.6 8 Sur 23 Sur -- -- -- 97
2020-01-24 18:00:00 11.8 6 Sudeste 22 Sudeste -- -- -- 97
2020-01-24 17:00:00 11.9 9 Este 25 Sudeste -- -- -- 96
2020-01-24 16:00:00 12.2 16 Sudeste 31 Sudeste -- -- -- 96
2020-01-24 15:00:00 12.6 4 Sudeste 20 Sudeste -- -- -- 94
2020-01-24 14:00:00 13.3 10 Sudeste 23 Sudeste -- -- -- 91
2020-01-24 13:00:00 12.9 9 Sudeste 19 Sudeste -- -- -- 99
2020-01-24 12:00:00 12.1 6 Este 13 Este -- -- -- 99
2020-01-24 11:00:00 11.2 6 Este 16 Sudeste -- -- -- 99
2020-01-24 10:00:00 8.9 5 Este 11 Sudeste -- -- -- 100
2020-01-24 09:00:00 6.3 4 Este 8 Este -- -- -- 99
2020-01-24 08:00:00 6.3 5 Nordeste 8 Nordeste -- -- -- 99
2020-01-24 07:00:00 6.4 6 Nordeste 12 Norte -- -- -- 99
2020-01-24 06:00:00 6.6 5 Nordeste 10 Norte -- -- -- 98
2020-01-24 05:00:00 6.7 5 Nordeste 14 Este -- -- -- 98
2020-01-24 04:00:00 6.3 5 Nordeste 9 Norte -- -- -- 98
2020-01-24 03:00:00 7.4 6 Nordeste 8 Nordeste -- -- -- 99
2020-01-24 02:00:00 7.8 5 Nordeste 8 Norte -- -- -- 98
2020-01-24 01:00:00 8.4 3 Nordeste 7 Este -- -- -- 97
2020-01-24 00:00:00 8.6 3 Sudeste 5 Sudeste -- -- -- 98
2020-01-23 23:00:00 9.3 3 Este 7 Este -- -- -- 96
2020-01-23 22:00:00 10.4 2 Sudeste 13 Sur -- -- -- 97
2020-01-23 21:00:00 10.6 6 Sudeste 16 Sur -- -- -- 96
2020-01-23 20:00:00 10.8 8 Sudeste 23 Sudeste -- -- -- 96
2020-01-23 19:00:00 11.3 8 Sudeste 22 Sudeste -- -- -- 96
2020-01-23 18:00:00 11.4 6 Sudeste 17 Sudeste -- -- -- 95
2020-01-23 17:00:00 11.8 6 Sudeste 23 Sudeste -- -- -- 95
2020-01-23 16:00:00 12.5 17 Sur 28 Sur -- -- -- 97
2020-01-23 15:00:00 11.9 5 Sudeste 13 Sur -- -- -- 98
2020-01-23 14:00:00 10.5 7 Sudoeste 15 Sur -- -- -- 97
2020-01-23 13:00:00 9.4 5 Este 17 Noroeste -- -- -- 97
2020-01-23 12:00:00 10.2 13 Noroeste 27 Noroeste -- -- -- 96
2020-01-23 11:00:00 9.7 6 Nordeste 23 Sudeste -- -- -- 98
2020-01-23 10:00:00 9.7 8 Este 18 Este -- -- -- 98
2020-01-23 09:00:00 9.7 3 Sudeste 17 Sudeste -- -- -- 97
2020-01-23 08:00:00 9.5 6 Este 14 Sur -- -- -- 97
2020-01-23 07:00:00 9.8 10 Sur 28 Sudoeste -- -- -- 96
2020-01-23 06:00:00 10.1 6 Sudeste 19 Este -- -- -- 96
2020-01-23 05:00:00 10.2 9 Sudeste 18 Sudeste -- -- -- 97
2020-01-23 04:00:00 9.9 4 Este 12 Nordeste -- -- -- 97
2020-01-23 03:00:00 9.7 8 Sudoeste 17 Oeste -- -- -- 97
2020-01-23 02:00:00 9.4 4 Oeste 11 Oeste -- -- -- 97
2020-01-23 01:00:00 9.4 4 Este 23 Nordeste -- -- -- 96
2020-01-23 00:00:00 9.5 7 Nordeste 22 Sudoeste -- -- -- 97
2020-01-22 23:00:00 9.4 5 Nordeste 9 Nordeste -- -- -- 97
2020-01-22 22:00:00 9.5 4 Este 17 Sudeste -- -- -- 96
2020-01-22 21:00:00 9.2 10 Este 21 Este -- -- -- 96
2020-01-22 20:00:00 9.7 11 Sudeste 21 Sudeste -- -- -- 96
2020-01-22 19:00:00 9.8 11 Este 21 Sudeste -- -- -- 96
2020-01-22 18:00:00 10.2 9 Este 16 Sudeste -- -- -- 96
2020-01-22 17:00:00 10.2 5 Sudeste 23 Sudeste -- -- -- 94
2020-01-22 16:00:00 11 8 Nordeste 18 Este -- -- -- 94
2020-01-22 15:00:00 11 8 Este 22 Nordeste 0 -- -- 92
2020-01-22 14:00:00 10.7 9 Nordeste 21 Este 0 -- -- 93
2020-01-22 13:00:00 10.3 10 Nordeste 16 Nordeste 0 -- -- 97
2020-01-22 12:00:00 9.4 8 Nordeste 15 Este 0 -- -- 97
2020-01-22 11:00:00 8.6 5 Nordeste 8 Nordeste 0 -- -- 97
2020-01-22 10:00:00 7.9 3 Nordeste 5 Nordeste 0 -- -- 96
2020-01-22 09:00:00 7.6 4 Nordeste 5 Nordeste 0 -- -- 95
2020-01-22 08:00:00 7.5 2 Este 5 Este 0 -- -- 94
2020-01-22 07:00:00 7.5 0 Calma 4 Este 0.2 -- -- 92
2020-01-22 06:00:00 7.8 0 Calma 3 Nordeste 0 -- -- 88
2020-01-22 05:00:00 8.2 3 Nordeste 7 Noroeste 0 -- -- 85
2020-01-22 04:00:00 8.6 3 Norte 8 Norte 0 -- -- 80
2020-01-22 03:00:00 9 4 Norte 14 Norte 0 -- -- 77
2020-01-22 02:00:00 8.4 4 Noroeste 12 Noroeste 0 -- -- 78
2020-01-22 01:00:00 8.1 6 Norte 12 Norte 0 -- -- 77
2020-01-22 00:00:00 8.7 7 Norte 15 Noroeste 0 -- -- 74
2020-01-21 23:00:00 8.6 6 Norte 13 Norte 0 -- -- 74
2020-01-21 22:00:00 9 4 Noroeste 11 Norte 0 -- -- 72
2020-01-21 21:00:00 9 6 Noroeste 8 Noroeste 0 -- -- 71
2020-01-21 20:00:00 9.1 3 Norte 14 Norte 0 -- -- 71
2020-01-21 19:00:00 9.8 5 Norte 13 Norte 0 -- -- 68
2020-01-21 18:00:00 11.8 9 Nordeste 30 Nordeste 0 -- -- 60
2020-01-21 17:00:00 12.8 18 Nordeste 32 Nordeste 0 -- -- 56
2020-01-21 16:00:00 13.4 19 Nordeste 33 Nordeste 0 -- -- 53
2020-01-21 15:00:00 13.7 19 Nordeste 35 Norte 0 -- -- 52
2020-01-21 14:00:00 13.9 19 Nordeste 40 Nordeste 0 -- -- 52
2020-01-21 13:00:00 13.9 19 Nordeste 38 Nordeste 0 -- -- 52
2020-01-21 12:00:00 12.6 20 Nordeste 32 Nordeste 0 -- -- 55
2020-01-21 11:00:00 10.2 14 Nordeste 24 Norte 0 -- -- 64
2020-01-21 10:00:00 6.9 10 Nordeste 19 Nordeste 0 -- -- 80
2020-01-21 09:00:00 4.3 10 Nordeste 16 Nordeste 0 -- -- 89
2020-01-21 08:00:00 4.7 6 Norte 17 Norte 0 -- -- 85
2020-01-21 07:00:00 4.9 10 Nordeste 15 Norte 0 -- -- 83
2020-01-21 06:00:00 5.7 5 Norte 12 Norte 0 -- -- 81
2020-01-21 05:00:00 6.6 4 Norte 18 Nordeste 0 -- -- 78
2020-01-21 04:00:00 5.6 12 Norte 20 Norte 0 -- -- 84
2020-01-21 03:00:00 5.8 10 Nordeste 17 Nordeste 0 -- -- 83
2020-01-21 02:00:00 6 8 Nordeste 17 Nordeste 0 -- -- 82
2020-01-21 01:00:00 6.5 9 Nordeste 17 Nordeste 0 -- -- 81
2020-01-21 00:00:00 6.8 13 Nordeste 18 Norte 0 -- -- 77
2020-01-20 23:00:00 7 8 Norte 20 Nordeste 0 -- -- 77
2020-01-20 22:00:00 6.3 11 Nordeste 17 Nordeste 0 -- -- 76
2020-01-20 21:00:00 7.4 10 Nordeste 30 Nordeste 0 -- -- 71
2020-01-20 20:00:00 9.6 19 Nordeste 35 Nordeste 0 -- -- 64
2020-01-20 19:00:00 11.1 19 Nordeste 41 Este 0 -- -- 59
2020-01-20 18:00:00 12.1 23 Nordeste 52 Este 0 -- -- 55
2020-01-20 17:00:00 12.5 27 Nordeste 60 Nordeste 0 -- -- 51
2020-01-20 16:00:00 12 42 Nordeste 61 Nordeste 0 -- -- 49
2020-01-20 15:00:00 12.3 36 Nordeste 58 Nordeste 0 -- -- 48
2020-01-20 14:00:00 11.6 40 Nordeste 66 Nordeste 0 -- -- 49
2020-01-20 13:00:00 11.3 39 Nordeste 61 Nordeste 0 -- -- 48
2020-01-20 12:00:00 10.6 36 Nordeste 59 Nordeste 0 -- -- 51
2020-01-20 11:00:00 9.6 39 Nordeste 58 Nordeste 0 -- -- 55
2020-01-20 10:00:00 7.1 30 Nordeste 43 Nordeste 0 -- -- 61
2020-01-20 09:00:00 5.2 17 Nordeste 28 Nordeste 0 -- -- 70
2020-01-20 08:00:00 4.3 13 Nordeste 19 Nordeste 0 -- -- 72
2020-01-20 07:00:00 4.6 15 Nordeste 31 Nordeste 0 -- -- 73
2020-01-20 06:00:00 5.7 19 Nordeste 32 Nordeste 0 -- -- 69
2020-01-20 05:00:00 7.1 21 Nordeste 41 Nordeste 0 -- -- 62
2020-01-20 04:00:00 7.9 27 Nordeste 45 Nordeste 0 -- -- 61
2020-01-20 03:00:00 7.9 24 Nordeste 40 Nordeste 0 -- -- 63
2020-01-20 02:00:00 7.9 14 Nordeste 39 Nordeste 0 -- -- 65
2020-01-20 01:00:00 8.6 15 Nordeste 39 Nordeste 0 -- -- 63
2020-01-20 00:00:00 9.8 19 Nordeste 41 Nordeste 0 -- -- 62
2020-01-19 23:00:00 10.6 18 Nordeste 42 Nordeste 0 -- -- 63
2020-01-19 22:00:00 11.9 30 Nordeste 44 Nordeste 0 -- -- 55
2020-01-19 21:00:00 12.2 8 Norte 15 Norte 0 -- -- 52
2020-01-19 20:00:00 12.1 11 Nordeste 23 Nordeste 0 -- -- 58
2020-01-19 19:00:00 11.9 10 Nordeste 34 Nordeste 0 -- -- 63
2020-01-19 18:00:00 15.3 14 Nordeste 31 Norte 0 -- -- 52
2020-01-19 17:00:00 15.8 12 Norte 33 Nordeste 0 -- -- 52
2020-01-19 16:00:00 16 16 Nordeste 32 Norte 0 -- -- 51
2020-01-19 15:00:00 16.9 13 Norte 32 Norte 0 -- -- 53
2020-01-19 14:00:00 16.1 13 Norte 31 Norte 0 -- -- 57
2020-01-19 13:00:00 15.1 12 Norte 31 Noroeste 0 -- -- 67
2020-01-19 12:00:00 14.3 12 Norte 27 Norte 0 -- -- 67
2020-01-19 11:00:00 12.4 13 Noroeste 28 Noroeste 0 -- -- 82
2020-01-19 10:00:00 9.9 7 Noroeste 17 Noroeste 0 -- -- 92
2020-01-19 09:00:00 8.4 7 Noroeste 19 Oeste 0 -- -- 93
2020-01-19 08:00:00 8.3 13 Oeste 22 Oeste 0 -- -- 94
2020-01-19 07:00:00 8.8 4 Oeste 17 Oeste 0 -- -- 93
2020-01-19 06:00:00 8.8 10 Oeste 18 Oeste 0 -- -- 92
2020-01-19 05:00:00 10.3 10 Oeste 19 Oeste 0 -- -- 91
2020-01-19 04:00:00 11.2 10 Oeste 19 Oeste 0 -- -- 92
2020-01-19 03:00:00 10.1 9 Oeste 15 Oeste 0 -- -- 94
2020-01-19 02:00:00 10.9 9 Oeste 17 Oeste 0 -- -- 91
2020-01-19 01:00:00 12.3 9 Oeste 28 Noroeste 0 -- -- 87
2020-01-19 00:00:00 13.7 17 Noroeste 37 Noroeste 0 -- -- 89
2020-01-18 23:00:00 15.7 21 Oeste 30 Oeste 0 -- -- 97
2020-01-18 22:00:00 15.7 22 Oeste 33 Oeste 0 -- -- 97
2020-01-18 21:00:00 15.7 18 Oeste 32 Sudoeste 0 -- -- 97
2020-01-18 20:00:00 15.7 16 Oeste 28 Oeste 0 -- -- 97
2020-01-18 19:00:00 15.8 18 Sudoeste 30 Sudoeste 0 -- -- 98
2020-01-18 18:00:00 15.9 19 Sudoeste 31 Sudoeste 0 -- -- 98
2020-01-18 17:00:00 16 22 Sudoeste 31 Sudoeste 0 -- -- 98
2020-01-18 16:00:00 15.7 21 Sudoeste 31 Sudoeste 0 -- -- 98
2020-01-18 15:00:00 15.6 17 Sudoeste 29 Sur 1 -- -- 98
2020-01-18 14:00:00 15.8 20 Sudoeste 30 Sur 0.4 -- -- 98
2020-01-18 13:00:00 15.9 19 Sur 27 Sur 0 -- -- 99
2020-01-18 12:00:00 13.6 6 Sudeste 12 Sudeste 0 -- -- 99
2020-01-18 11:00:00 10.8 6 Este 14 Nordeste 0.2 -- -- 99
2020-01-18 10:00:00 9.6 2 Nordeste 4 Nordeste 0 -- -- 99
2020-01-18 09:00:00 8.9 3 Nordeste 6 Nordeste 0 -- -- 99
2020-01-18 08:00:00 8.4 3 Nordeste 5 Nordeste 0 -- -- 99
2020-01-18 07:00:00 7.8 0 Calma 0 Calma 0 -- -- 98
2020-01-18 06:00:00 7.3 0 Calma 6 Nordeste 0 -- -- 98
2020-01-18 05:00:00 7.2 5 Nordeste 8 Nordeste 0 -- -- 98
2020-01-18 04:00:00 6.2 3 Nordeste 6 Este 0 -- -- 98
2020-01-18 03:00:00 4.8 4 Nordeste 6 Este 0 -- -- 97
2020-01-18 02:00:00 5.2 3 Norte 5 Nordeste 0 -- -- 96
2020-01-18 01:00:00 6.3 4 Norte 9 Norte 0 -- -- 96
2020-01-18 00:00:00 5.6 2 Noroeste 6 Nordeste 0 -- -- 93
2020-01-17 23:00:00 7 4 Norte 6 Norte 0 -- -- 92
2020-01-17 22:00:00 7.7 0 Calma 5 Nordeste 0 -- -- 90
2020-01-17 21:00:00 9.1 2 Noroeste 6 Nordeste 0 -- -- 86
2020-01-17 20:00:00 12.4 3 Nordeste 8 Nordeste 0 -- -- 87
2020-01-17 19:00:00 14.1 4 Nordeste 10 Nordeste 0 -- -- 79
2020-01-17 18:00:00 17.4 9 Nordeste 15 Nordeste 0 -- -- 72
2020-01-17 17:00:00 18.5 8 Nordeste 15 Nordeste 0 -- -- 69
2020-01-17 16:00:00 18.3 9 Nordeste 18 Nordeste 0 -- -- 74
2020-01-17 15:00:00 18.7 5 Este 13 Nordeste 0 -- -- 72
2020-01-17 14:00:00 17.9 6 Nordeste 17 Nordeste 0 -- -- 76
2020-01-17 13:00:00 16.6 8 Nordeste 15 Este 0 -- -- 81
2020-01-17 12:00:00 14.9 10 Nordeste 14 Nordeste 0 -- -- 87
2020-01-17 11:00:00 13.2 9 Nordeste 14 Nordeste 0 -- -- 95
2020-01-17 10:00:00 11.8 9 Nordeste 13 Nordeste 0 -- -- 97
2020-01-17 09:00:00 11.3 3 Norte 4 Norte 0 -- -- 96
2020-01-17 08:00:00 11.2 2 Nordeste 7 Nordeste 0 -- -- 95
2020-01-17 07:00:00 11.7 0 Calma 8 Sur 0 -- -- 95
2020-01-17 06:00:00 13.2 6 Sur 16 Sur 0 -- -- 97
2020-01-17 05:00:00 11.4 0 Calma 8 Sur 0 -- -- 96
2020-01-17 04:00:00 11.8 4 Sudeste 13 Sur 0 -- -- 95
2020-01-17 03:00:00 12.5 6 Sur 13 Sur 0 -- -- 97
2020-01-17 02:00:00 12.3 9 Sur 12 Sur 0 -- -- 97
2020-01-17 01:00:00 12 5 Sur 11 Sur 0 -- -- 97
2020-01-17 00:00:00 12 9 Sur 12 Sur 0 -- -- 97
2020-01-16 23:00:00 11 8 Sur 13 Sur 0 -- -- 97
2020-01-16 22:00:00 10.6 10 Sur 12 Sur 0 -- -- 96
2020-01-16 21:00:00 10.8 9 Sur 12 Sur 0 -- -- 95
2020-01-16 20:00:00 11.2 7 Sur 9 Sur 0 -- -- 91
2020-01-16 19:00:00 13.5 8 Sur 19 Sudoeste 0 -- -- 86
2020-01-16 18:00:00 15.8 14 Sudoeste 26 Sur 0 -- -- 81
2020-01-16 17:00:00 17.8 18 Sur 27 Sudoeste 0 -- -- 71
2020-01-16 16:00:00 19 17 Sur 28 Sur 0 -- -- 60
2020-01-16 15:00:00 19.8 19 Sur 25 Sudoeste 0 -- -- 44
2020-01-16 14:00:00 20.2 12 Sudoeste 16 Sudoeste 0 -- -- 38
2020-01-16 13:00:00 16.6 4 Sudeste 11 Nordeste 0 -- -- 52
2020-01-16 12:00:00 13.1 6 Nordeste 15 Nordeste 0 -- -- 68
2020-01-16 11:00:00 8.7 12 Nordeste 17 Nordeste 0 -- -- 98
2020-01-16 10:00:00 5.5 6 Nordeste 10 Nordeste 0 -- -- 98
2020-01-16 09:00:00 4.2 5 Nordeste 12 Nordeste 0 -- -- 95
2020-01-16 08:00:00 5.6 8 Nordeste 14 Nordeste 0 -- -- 95
2020-01-16 07:00:00 6 13 Nordeste 17 Nordeste 0 -- -- 94
2020-01-16 06:00:00 6.3 10 Nordeste 13 Norte 0 -- -- 94
2020-01-16 05:00:00 5.8 6 Nordeste 12 Nordeste 0 -- -- 94
2020-01-16 04:00:00 6.4 9 Nordeste 13 Nordeste 0 -- -- 95
2020-01-16 03:00:00 5.4 7 Nordeste 10 Nordeste 0 -- -- 96
2020-01-16 02:00:00 5.5 4 Este 7 Este 0 -- -- 94
2020-01-16 01:00:00 6.7 0 Calma 5 Este 0 -- -- 93
2020-01-16 00:00:00 8.1 3 Sudeste 7 Sudeste 0 -- -- 91
2020-01-15 23:00:00 9.5 4 Sudeste 11 Sudeste 0 -- -- 90
2020-01-15 22:00:00 10.1 4 Sudeste 12 Sudeste 0 -- -- 88
2020-01-15 21:00:00 11.5 7 Sur 11 Sur 0 -- -- 86
2020-01-15 20:00:00 12.7 5 Sudeste 10 Sur 0 -- -- 85
2020-01-15 19:00:00 14.4 6 Sudeste 20 Sur 0 -- -- 81
2020-01-15 18:00:00 16.4 15 Sur 27 Sur 0 -- -- 78
2020-01-15 17:00:00 17.6 19 Sur 30 Sur 0 -- -- 73
2020-01-15 16:00:00 18.2 20 Sur 32 Sur 0 -- -- 71
2020-01-15 15:00:00 18.7 21 Sur 32 Sur 0 -- -- 69
2020-01-15 14:00:00 19 24 Sur 34 Sur 0 -- -- 69
2020-01-15 13:00:00 19 19 Sur 31 Sur 0 -- -- 68
2020-01-15 12:00:00 16.5 7 Sudeste 15 Sudeste 0 -- -- 73
2020-01-15 11:00:00 12.5 4 Este 13 Este 0 -- -- 86
2020-01-15 10:00:00 7.9 5 Este 13 Nordeste 0 -- -- 96
2020-01-15 09:00:00 6.3 8 Norte 14 Norte 0 -- -- 95
2020-01-15 08:00:00 6.2 8 Nordeste 15 Nordeste 0 -- -- 96
2020-01-15 07:00:00 4.8 7 Nordeste 15 Nordeste 0 -- -- 97
2020-01-15 06:00:00 4 6 Nordeste 10 Nordeste 0 -- -- 97
2020-01-15 05:00:00 3.8 6 Nordeste 12 Nordeste 0 -- -- 96
2020-01-15 04:00:00 3.4 8 Nordeste 13 Nordeste 0 -- -- 94
2020-01-15 03:00:00 4.1 6 Nordeste 9 Nordeste 0 -- -- 94
2020-01-15 02:00:00 4.3 4 Este 7 Sudeste 0 -- -- 92
2020-01-15 01:00:00 5.9 3 Sudeste 6 Sudeste 0 -- -- 91
2020-01-15 00:00:00 6.5 3 Sudeste 6 Sudeste 0 -- -- 92
2020-01-14 23:00:00 6.9 3 Sur 6 Sur 0 -- -- 90
2020-01-14 22:00:00 7.2 3 Sudeste 6 Sur 0 -- -- 87
2020-01-14 21:00:00 7.3 2 Sudeste 4 Sudeste 0 -- -- 79
2020-01-14 20:00:00 9.9 0 Calma 4 Sur 0 -- -- 75
2020-01-14 19:00:00 12.5 3 Sur 9 Sur 0 -- -- 66
2020-01-14 18:00:00 15.2 8 Sur 16 Sur 0 -- -- 58
2020-01-14 17:00:00 16 9 Sur 16 Sur 0 -- -- 51
2020-01-14 16:00:00 17.9 11 Sudoeste 17 Sudoeste 0 -- -- 44
2020-01-14 15:00:00 17.2 8 Sur 17 Sur 0 -- -- 51
2020-01-14 14:00:00 17.1 10 Sur 17 Sur 0 -- -- 52
2020-01-14 13:00:00 13.9 3 Este 13 Este 0 -- -- 66
2020-01-14 12:00:00 11.5 8 Nordeste 15 Este 0 -- -- 74
2020-01-14 11:00:00 8 8 Nordeste 14 Nordeste 0 -- -- 95
2020-01-14 10:00:00 4.9 6 Nordeste 12 Nordeste 0 -- -- 99
2020-01-14 09:00:00 3.4 8 Nordeste 14 Nordeste 0 -- -- 98
2020-01-14 08:00:00 1.7 8 Norte 14 Nordeste 0 -- -- 97
2020-01-14 07:00:00 3 5 Norte 13 Norte 0 -- -- 97
2020-01-14 06:00:00 2.5 5 Nordeste 9 Nordeste 0 -- -- 94
2020-01-14 05:00:00 4.5 0 Calma 7 Nordeste 0 -- -- 93
2020-01-14 04:00:00 5.8 6 Nordeste 10 Norte 0 -- -- 94
2020-01-14 03:00:00 7 3 Norte 12 Norte 0 -- -- 96
2020-01-14 02:00:00 6.3 3 Norte 10 Norte 0 -- -- 97
2020-01-14 01:00:00 5.5 4 Norte 13 Noroeste 0 -- -- 96
2020-01-14 00:00:00 4.1 6 Norte 11 Norte 0 -- -- 94
2020-01-13 23:00:00 5 0 Calma 5 Sur 0 -- -- 93
2020-01-13 22:00:00 5.2 2 Sudeste 6 Este 0 -- -- 87
2020-01-13 21:00:00 7.5 3 Oeste 5 Oeste 0 -- -- 89
2020-01-13 20:00:00 11 3 Noroeste 10 Noroeste 0 -- -- 80
2020-01-13 19:00:00 12.8 5 Oeste 12 Oeste 0 -- -- 72
2020-01-13 18:00:00 15 8 Oeste 15 Sudoeste 0 -- -- 63
2020-01-13 17:00:00 17 13 Sudoeste 17 Sur 0 -- -- 56
2020-01-13 16:00:00 16 5 Este 13 Sudeste 0 -- -- 57
2020-01-13 15:00:00 16.6 4 Este 15 Este 0 -- -- 54
2020-01-13 14:00:00 16 6 Este 16 Nordeste 0 -- -- 56
2020-01-13 13:00:00 13.5 10 Nordeste 18 Nordeste 0 -- -- 63
2020-01-13 12:00:00 9.9 10 Nordeste 17 Nordeste 0 -- -- 75
2020-01-13 11:00:00 7.5 10 Nordeste 19 Nordeste 0 -- -- 83
2020-01-13 10:00:00 3.9 9 Nordeste 14 Nordeste 0 -- -- 96
2020-01-13 09:00:00 1.8 5 Nordeste 12 Norte 0 -- -- 95
2020-01-13 08:00:00 0.4 4 Nordeste 11 Nordeste 0 -- -- 92
2020-01-13 07:00:00 2.7 5 Norte 15 Norte 0 -- -- 93
2020-01-13 06:00:00 3 6 Nordeste 12 Norte 0 -- -- 93
2020-01-13 05:00:00 4.3 8 Norte 12 Nordeste 0 -- -- 91
2020-01-13 04:00:00 4.1 7 Nordeste 12 Norte 0 -- -- 91
2020-01-13 03:00:00 3.3 6 Nordeste 12 Norte 0 -- -- 86
2020-01-13 02:00:00 4.1 6 Nordeste 15 Nordeste 0 -- -- 95
2020-01-13 01:00:00 1.4 2 Norte 6 Norte 0 -- -- 91
2020-01-13 00:00:00 1.7 3 Norte 6 Norte 0 -- -- 85
2020-01-12 23:00:00 4.5 3 Noroeste 10 Noroeste 0 -- -- 74
2020-01-12 22:00:00 5.3 5 Noroeste 11 Noroeste 0 -- -- 84
2020-01-12 21:00:00 6.2 2 Norte 4 Noroeste 0 -- -- 76
2020-01-12 20:00:00 7.2 2 Noroeste 3 Noroeste 0 -- -- 71
2020-01-12 19:00:00 12.3 3 Nordeste 8 Nordeste 0 -- -- 58
2020-01-12 18:00:00 15.1 6 Nordeste 19 Nordeste 0 -- -- 46
2020-01-12 17:00:00 16.9 9 Nordeste 18 Nordeste 0 -- -- 44
2020-01-12 16:00:00 17.2 11 Nordeste 19 Nordeste 0 -- -- 45
2020-01-12 15:00:00 16.6 11 Nordeste 19 Nordeste 0 -- -- 52
2020-01-12 14:00:00 15.3 11 Nordeste 23 Nordeste 0 -- -- 56
2020-01-12 13:00:00 13.6 9 Nordeste 20 Nordeste 0 -- -- 65
2020-01-12 12:00:00 11.3 12 Nordeste 20 Nordeste 0 -- -- 70
2020-01-12 11:00:00 8.2 12 Nordeste 18 Nordeste 0 -- -- 80
2020-01-12 10:00:00 4 6 Nordeste 16 Nordeste 0 -- -- 92
2020-01-12 09:00:00 3.2 9 Nordeste 15 Nordeste 0 -- -- 90
2020-01-12 08:00:00 3.5 9 Norte 17 Norte 0 -- -- 89
2020-01-12 07:00:00 4 7 Norte 12 Nordeste 0 -- -- 88
2020-01-12 06:00:00 2.7 7 Norte 14 Nordeste 0 -- -- 87
2020-01-12 05:00:00 3.4 6 Norte 13 Nordeste 0 -- -- 88
2020-01-12 04:00:00 2.8 4 Nordeste 8 Norte 0 -- -- 80
2020-01-12 03:00:00 5.3 5 Norte 11 Norte 0 -- -- 79
2020-01-12 02:00:00 4.9 4 Norte 9 Norte 0 -- -- 80
2020-01-12 01:00:00 4.5 6 Norte 9 Norte 0 -- -- 87
2020-01-12 00:00:00 4 2 Nordeste 6 Sudeste 0 -- -- 86
2020-01-11 23:00:00 4.9 4 Este 10 Sudeste 0 -- -- 74
2020-01-11 22:00:00 7.4 2 Norte 6 Norte 0 -- -- 74
2020-01-11 21:00:00 9.5 4 Norte 9 Norte 0 -- -- 72
2020-01-11 20:00:00 9.7 3 Norte 8 Nordeste 0 -- -- 70
2020-01-11 19:00:00 11.3 5 Nordeste 10 Nordeste 0 -- -- 63
2020-01-11 18:00:00 14.9 9 Nordeste 19 Nordeste 0 -- -- 53
2020-01-11 17:00:00 16.6 9 Nordeste 18 Nordeste 0 -- -- 48
2020-01-11 16:00:00 16.9 9 Nordeste 18 Nordeste 0 -- -- 47
2020-01-11 15:00:00 16.5 10 Nordeste 22 Nordeste 0 -- -- 48
2020-01-11 14:00:00 15.5 14 Nordeste 25 Nordeste 0 -- -- 48
2020-01-11 13:00:00 14.3 13 Nordeste 31 Nordeste 0 -- -- 53
2020-01-11 12:00:00 12.6 19 Nordeste 36 Nordeste 0 -- -- 55
2020-01-11 11:00:00 10.2 19 Nordeste 30 Nordeste 0 -- -- 63
2020-01-11 10:00:00 5.8 13 Nordeste 24 Nordeste 0 -- -- 85
2020-01-11 09:00:00 3.9 14 Nordeste 19 Norte 0 -- -- 81
2020-01-11 08:00:00 4.6 13 Nordeste 20 Norte 0 -- -- 82
2020-01-11 07:00:00 5 12 Nordeste 15 Nordeste 0 -- -- 80
2020-01-11 06:00:00 4.5 9 Nordeste 15 Nordeste 0 -- -- 80
2020-01-11 05:00:00 3.8 3 Nordeste 14 Norte 0 -- -- 77
2020-01-11 04:00:00 3.8 5 Norte 9 Norte 0 -- -- 86
2020-01-11 03:00:00 3 2 Norte 16 Noroeste 0 -- -- 86
2020-01-11 02:00:00 6.8 6 Norte 14 Norte 0 -- -- 75
2020-01-11 01:00:00 6.7 5 Norte 11 Norte 0 -- -- 78
2020-01-11 00:00:00 7.1 5 Norte 22 Norte 0 -- -- 79
2020-01-10 23:00:00 7.4 8 Norte 13 Norte 0 -- -- 77
2020-01-10 22:00:00 7 3 Norte 12 Norte 0 -- -- 72
2020-01-10 21:00:00 8.9 7 Noroeste 11 Noroeste 0 -- -- 67
2020-01-10 20:00:00 10.4 5 Noroeste 6 Norte 0 -- -- 64
2020-01-10 19:00:00 12.1 3 Norte 12 Norte 0 -- -- 62
2020-01-10 18:00:00 14.7 8 Nordeste 15 Nordeste 0 -- -- 53
2020-01-10 17:00:00 16.1 10 Nordeste 19 Nordeste 0 -- -- 47
2020-01-10 16:00:00 16.1 12 Nordeste 26 Nordeste 0 -- -- 48
2020-01-10 15:00:00 15.6 13 Nordeste 25 Nordeste 0 -- -- 51
2020-01-10 14:00:00 14.9 11 Nordeste 23 Nordeste 0 -- -- 57
2020-01-10 13:00:00 13.9 12 Nordeste 23 Nordeste 0 -- -- 64
2020-01-10 12:00:00 12.6 9 Norte 22 Norte 0 -- -- 69
2020-01-10 11:00:00 10.8 7 Norte 21 Noroeste 0 -- -- 80
2020-01-10 10:00:00 7.6 8 Noroeste 18 Noroeste 0 -- -- 97
2020-01-10 09:00:00 6.2 8 Noroeste 17 Oeste 0 -- -- 97
2020-01-10 08:00:00 6.2 8 Noroeste 14 Noroeste 0 -- -- 98
2020-01-10 07:00:00 4.9 7 Noroeste 12 Noroeste 0 -- -- 97
2020-01-10 06:00:00 5.1 4 Noroeste 12 Norte 0 -- -- 96
2020-01-10 05:00:00 7.2 3 Norte 10 Oeste 0 -- -- 96
2020-01-10 04:00:00 6.7 7 Oeste 9 Oeste 0 -- -- 96
2020-01-10 03:00:00 6.3 4 Oeste 11 Noroeste 0 -- -- 93
2020-01-10 02:00:00 7.7 7 Noroeste 14 Noroeste 0 -- -- 92
2020-01-10 01:00:00 7 7 Oeste 13 Noroeste 0 -- -- 89
2020-01-10 00:00:00 7.9 4 Noroeste 9 Noroeste 0 -- -- 88
2020-01-09 23:00:00 8.7 4 Oeste 15 Noroeste 0 -- -- 84
2020-01-09 22:00:00 8.6 6 Oeste 11 Oeste 0 -- -- 94
2020-01-09 21:00:00 6.3 5 Oeste 12 Oeste 0 -- -- 91
2020-01-09 20:00:00 7.9 3 Noroeste 8 Noroeste 0 -- -- 85
2020-01-09 19:00:00 11 4 Noroeste 9 Oeste 0 -- -- 81
2020-01-09 18:00:00 13.9 6 Sudoeste 15 Oeste 0 -- -- 74
2020-01-09 17:00:00 17 10 Sudoeste 18 Sur 0 -- -- 63
2020-01-09 16:00:00 17.2 8 Sudoeste 16 Sudoeste 0 -- -- 58
2020-01-09 15:00:00 17.3 9 Sudoeste 19 Oeste 0 -- -- 59
2020-01-09 14:00:00 17.2 6 Oeste 19 Sur 0 -- -- 60
2020-01-09 13:00:00 16 9 Sudeste 18 Este 0 -- -- 68
2020-01-09 12:00:00 10.9 4 Nordeste 12 Nordeste 0 -- -- 99
2020-01-09 11:00:00 8.5 6 Nordeste 14 Este 0 -- -- 99
2020-01-09 10:00:00 3.9 5 Nordeste 7 Nordeste 0 -- -- 99
2020-01-09 09:00:00 1.3 4 Nordeste 8 Nordeste 0 -- -- 99
2020-01-09 08:00:00 1.6 3 Nordeste 8 Sudeste 0 -- -- 98
2020-01-09 07:00:00 2.4 3 Nordeste 12 Nordeste 0 -- -- 98
2020-01-09 06:00:00 1.9 8 Nordeste 14 Nordeste 0 -- -- 99
2020-01-09 05:00:00 7 8 Sur 12 Sur 0 -- -- 98
2020-01-09 04:00:00 6.8 10 Sur 13 Sur 0 -- -- 98
2020-01-09 03:00:00 7.3 10 Sur 13 Sur 0 -- -- 98
2020-01-09 02:00:00 6.5 9 Sur 12 Sur 0 -- -- 98
2020-01-09 01:00:00 6.4 5 Sur 12 Oeste 0 -- -- 97
2020-01-09 00:00:00 5.3 9 Sudoeste 11 Sudoeste 0 -- -- 98
2020-01-08 23:00:00 5.5 5 Sudoeste 8 Sur 0 -- -- 97
2020-01-08 22:00:00 5.9 4 Sur 6 Oeste 0 -- -- 95
2020-01-08 21:00:00 6 5 Oeste 7 Oeste 0 -- -- 89
2020-01-08 20:00:00 9 5 Oeste 8 Oeste 0 -- -- 82
2020-01-08 19:00:00 12.3 4 Oeste 6 Oeste 0 -- -- 75
2020-01-08 18:00:00 15.9 6 Sudoeste 13 Oeste 0 -- -- 64
2020-01-08 17:00:00 19 11 Sudoeste 14 Sudoeste 0 -- -- 55
2020-01-08 16:00:00 19.1 5 Nordeste 17 Este 0 -- -- 44
2020-01-08 15:00:00 18.2 6 Nordeste 14 Norte 0 -- -- 49
2020-01-08 14:00:00 16.8 9 Nordeste 18 Nordeste 0 -- -- 55
2020-01-08 13:00:00 14.7 13 Nordeste 22 Nordeste 0 -- -- 62
2020-01-08 12:00:00 12.5 11 Nordeste 22 Nordeste 0 -- -- 69
2020-01-08 11:00:00 9.2 12 Nordeste 19 Norte 0 -- -- 84
2020-01-08 10:00:00 5.5 11 Nordeste 19 Nordeste 0 -- -- 98
2020-01-08 09:00:00 3.6 8 Norte 15 Nordeste 0 -- -- 97
2020-01-08 08:00:00 3.9 7 Norte 15 Norte 0 -- -- 97
2020-01-08 07:00:00 3.5 10 Nordeste 15 Nordeste 0 -- -- 96
2020-01-08 06:00:00 4.6 11 Nordeste 14 Nordeste 0 -- -- 97
2020-01-08 05:00:00 4.9 6 Nordeste 13 Nordeste 0 -- -- 97
2020-01-08 04:00:00 3.2 4 Norte 9 Nordeste 0 -- -- 98
2020-01-08 03:00:00 0.3 2 Norte 4 Norte 0 -- -- 93
2020-01-08 02:00:00 1.6 0 Calma -- -- 0 -- -- 94
2020-01-08 01:00:00 1.6 3 Noroeste 5 Norte 0 -- -- 94
2020-01-08 00:00:00 2.2 2 Nordeste 4 Norte 0 -- -- 91
2020-01-07 23:00:00 2.9 2 Norte 3 Norte 0 -- -- 90
2020-01-07 22:00:00 3.4 0 Calma 3 Noroeste 0 -- -- 88
2020-01-07 21:00:00 5.8 0 Calma 4 Noroeste 0 -- -- 84
2020-01-07 20:00:00 9.6 0 Calma 3 Nordeste 0 -- -- 79
2020-01-07 19:00:00 12.1 0 Calma 4 Nordeste 0 -- -- 65
2020-01-07 18:00:00 15.7 4 Nordeste 15 Nordeste 0 -- -- 59
2020-01-07 17:00:00 16.9 7 Nordeste 20 Norte 0 -- -- 54
2020-01-07 16:00:00 16.7 8 Nordeste 19 Nordeste 0 -- -- 56
2020-01-07 15:00:00 15.9 11 Nordeste 21 Nordeste 0 -- -- 58
2020-01-07 14:00:00 14.9 13 Nordeste 25 Nordeste 0 -- -- 61
2020-01-07 13:00:00 13.1 13 Nordeste 21 Nordeste 0 -- -- 70
2020-01-07 12:00:00 11.4 9 Nordeste 19 Este 0 -- -- 77
2020-01-07 11:00:00 8.4 14 Nordeste 21 Nordeste 0 -- -- 98
2020-01-07 10:00:00 5.9 8 Nordeste 14 Nordeste 0 -- -- 99
2020-01-07 09:00:00 3.9 4 Norte 14 Nordeste 0 -- -- 98
2020-01-07 08:00:00 3.3 6 Norte 11 Nordeste 0 -- -- 99
2020-01-07 07:00:00 2.9 5 Nordeste 16 Norte 0 -- -- 97
2020-01-07 06:00:00 4.2 9 Nordeste 14 Norte 0 -- -- 98
2020-01-07 05:00:00 2.5 6 Nordeste 8 Nordeste 0 -- -- 98
2020-01-07 04:00:00 2.7 4 Nordeste 9 Nordeste 0 -- -- 95
2020-01-07 03:00:00 2 2 Norte 6 Nordeste 0 -- -- 97
2020-01-07 02:00:00 2 3 Nordeste 4 Nordeste 0 -- -- 94
2020-01-07 01:00:00 2.5 0 Calma 5 Noroeste 0 -- -- 92
2020-01-07 00:00:00 4.6 2 Norte 7 Norte 0 -- -- 87
2020-01-06 23:00:00 7.1 2 Noroeste 11 Noroeste 0 -- -- 83
2020-01-06 22:00:00 8.3 4 Norte 9 Noroeste 0 -- -- 88
2020-01-06 21:00:00 8.8 6 Noroeste 11 Noroeste 0 -- -- 88
2020-01-06 20:00:00 8.9 0 Calma 5 Este 0 -- -- 82
2020-01-06 19:00:00 11.2 3 Este 9 Nordeste 0 -- -- 74
2020-01-06 18:00:00 14.9 4 Este 12 Nordeste 0 -- -- 65
2020-01-06 17:00:00 16.6 5 Nordeste 11 Nordeste 0 -- -- 60
2020-01-06 16:00:00 17.5 4 Este 14 Sudeste 0 -- -- 57
2020-01-06 15:00:00 16.8 4 Este 12 Sudeste 0 -- -- 58
2020-01-06 14:00:00 15.5 5 Norte 15 Nordeste 0 -- -- 64
2020-01-06 13:00:00 14 8 Nordeste 17 Nordeste 0 -- -- 71
2020-01-06 12:00:00 11.1 11 Nordeste 18 Nordeste 0 -- -- 82
2020-01-06 11:00:00 7.9 9 Nordeste 17 Nordeste 0 -- -- 97
2020-01-06 10:00:00 5.3 7 Norte 13 Nordeste 0 -- -- 98